world map with NKT marked

NKT - Airport

This information may not be accurate or current and is not valid for navigation or flight planning. No warranty of fitness for any purpose is made or implied.

flag of Turkey

Donate via PayPal

Additional information is available on the NEW Great Circle Mapper

Location
City:  Sirnak, Turkey
Name:Sirnak Airport
ICAO / IATA:LTCV / NKT

Details
Type:Airport (Aerodrome, Airfield)
Latitude:37°21'35"N (37.359722)
Longitude:42°03'45"E (42.062500)
Runways:1
Longest:9843 × 148 ft (3000 × 45 m)

Time
Timezone:UTC+3 (DST+5)
Local Time:

Weather
METAR:LTCV  041350Z VRB01KT CAVOK 13/M01 Q1026

Related Locations
Nearby:
Farthest:GMR: 11430 mi / 18395 km
Mangareva [Totegegie], Gambier Islands, PF

Find:

   beyond  
but within

Other Information
Maps:
Sources:

  


 


Great Circle Mapper   Great Circle Mapper
Great Circle Mapper FAQ   Great Circle Mapper FAQ
  Karl's Home Page
KLSē   KLSē Home
   GC on Facebook
Airlines of the World   Airlines of the World
Donate via PayPal


Copyright © 2004-2019, Karl L. Swartz. All rights reserved.
All trademarks mentioned herein belong to their respective owners.

Please see credits for attribution and copyright information.

Karl Swartz <karl@kls2.com>
  Powered by FreeBSD
Valid HTML 4.01!
Labeled with ICRA
hCard Microformat
Geo Microformat